sensor_id;sensor_type;location;lat;lon;timestamp;pressure;altitude;pressure_sealevel;temperature;humidity
2401;BME280;1211;43.200;27.914;2023-03-13T00:15:28;53327.91;;;19.04;100.00
2401;BME280;1211;43.200;27.914;2023-03-13T00:52:05;53327.91;;;19.04;95.02
2401;BME280;1211;43.200;27.914;2023-03-13T09:02:42;-18434.47;;;185.55;100.00
2401;BME280;1211;43.200;27.914;2023-03-13T09:39:26;70197.34;;;-145.55;100.00
2401;BME280;1211;43.200;27.914;2023-03-13T09:44:19;38174.53;;;185.23;100.00
2401;BME280;1211;43.200;27.914;2023-03-13T09:56:36;-18208.25;;;185.23;100.00
2401;BME280;1211;43.200;27.914;2023-03-13T09:59:05;30709.84;;;19.20;100.00
2401;BME280;1211;43.200;27.914;2023-03-13T10:01:37;38202.25;;;185.23;100.00
2401;BME280;1211;43.200;27.914;2023-03-13T10:36:01;98515.50;;;-3.58;nan
2401;BME280;1211;43.200;27.914;2023-03-13T10:38:29;98424.69;;;-4.70;nan
2401;BME280;1211;43.200;27.914;2023-03-13T10:40:58;98415.44;;;-4.82;nan
2401;BME280;1211;43.200;27.914;2023-03-13T10:43:27;98440.25;;;-5.58;nan
2401;BME280;1211;43.200;27.914;2023-03-13T10:45:54;98415.22;;;-6.16;nan
2401;BME280;1211;43.200;27.914;2023-03-13T10:48:22;98218.16;;;-7.70;nan
2401;BME280;1211;43.200;27.914;2023-03-13T10:50:49;98255.38;;;-8.24;nan
2401;BME280;1211;43.200;27.914;2023-03-13T10:53:23;98260.47;;;-8.32;nan
2401;BME280;1211;43.200;27.914;2023-03-13T10:55:51;98093.47;;;-9.20;nan
2401;BME280;1211;43.200;27.914;2023-03-13T10:58:19;98024.19;;;-9.50;nan
2401;BME280;1211;43.200;27.914;2023-03-13T11:00:48;98009.81;;;-9.03;nan
2401;BME280;1211;43.200;27.914;2023-03-13T11:03:15;98078.00;;;-9.43;nan
2401;BME280;1211;43.200;27.914;2023-03-13T11:05:43;97808.34;;;-11.37;nan
2401;BME280;1211;43.200;27.914;2023-03-13T11:08:11;97900.69;;;-10.97;nan
2401;BME280;1211;43.200;27.914;2023-03-13T11:10:51;97903.66;;;-11.41;nan
2401;BME280;1211;43.200;27.914;2023-03-13T11:13:29;97880.50;;;-11.45;nan
2401;BME280;1211;43.200;27.914;2023-03-13T11:15:57;97912.94;;;-11.38;nan
2401;BME280;1211;43.200;27.914;2023-03-13T11:18:27;97813.63;;;-11.42;nan
2401;BME280;1211;43.200;27.914;2023-03-13T11:20:56;97706.69;;;-12.05;nan
2401;BME280;1211;43.200;27.914;2023-03-13T11:23:25;97618.00;;;-13.18;nan
2401;BME280;1211;43.200;27.914;2023-03-13T11:25:57;97703.00;;;-13.10;nan
2401;BME280;1211;43.200;27.914;2023-03-13T11:28:34;97633.16;;;-13.94;nan
2401;BME280;1211;43.200;27.914;2023-03-13T11:31:06;97680.66;;;-12.13;nan
2401;BME280;1211;43.200;27.914;2023-03-13T11:33:38;97655.44;;;-13.85;nan
2401;BME280;1211;43.200;27.914;2023-03-13T11:36:10;97542.16;;;-14.25;nan
2401;BME280;1211;43.200;27.914;2023-03-13T11:38:40;97515.38;;;-14.34;nan
2401;BME280;1211;43.200;27.914;2023-03-13T11:41:15;97379.72;;;-14.23;nan
2401;BME280;1211;43.200;27.914;2023-03-13T11:43:51;97281.63;;;-15.75;nan
2401;BME280;1211;43.200;27.914;2023-03-13T11:46:24;97437.84;;;-14.49;nan
2401;BME280;1211;43.200;27.914;2023-03-13T11:49:07;97473.84;;;-14.43;nan
2401;BME280;1211;43.200;27.914;2023-03-13T11:51:42;97655.69;;;-13.65;nan
2401;BME280;1211;43.200;27.914;2023-03-13T11:54:37;98019.63;;;-11.41;nan
2401;BME280;1211;43.200;27.914;2023-03-13T11:57:12;97987.19;;;-11.48;nan
2401;BME280;1211;43.200;27.914;2023-03-13T11:59:40;98007.91;;;-11.13;nan
2401;BME280;1211;43.200;27.914;2023-03-13T12:02:13;97982.47;;;-11.41;nan
2401;BME280;1211;43.200;27.914;2023-03-13T12:04:44;98026.34;;;-10.50;nan
2401;BME280;1211;43.200;27.914;2023-03-13T12:07:15;97928.16;;;-10.71;nan
2401;BME280;1211;43.200;27.914;2023-03-13T12:09:46;97910.63;;;-11.67;nan
2401;BME280;1211;43.200;27.914;2023-03-13T12:12:18;97999.78;;;-11.34;nan
2401;BME280;1211;43.200;27.914;2023-03-13T12:14:47;97893.94;;;-12.31;nan
2401;BME280;1211;43.200;27.914;2023-03-13T12:17:21;97951.03;;;-11.54;nan
2401;BME280;1211;43.200;27.914;2023-03-13T12:19:52;97855.78;;;-11.98;nan
2401;BME280;1211;43.200;27.914;2023-03-13T12:22:23;97808.78;;;-12.39;nan
2401;BME280;1211;43.200;27.914;2023-03-13T12:24:54;97939.56;;;-11.65;nan
2401;BME280;1211;43.200;27.914;2023-03-13T12:27:25;98156.94;;;-10.41;nan
2401;BME280;1211;43.200;27.914;2023-03-13T12:29:57;97903.72;;;-12.04;nan
2401;BME280;1211;43.200;27.914;2023-03-13T12:32:27;98200.72;;;-10.17;nan
2401;BME280;1211;43.200;27.914;2023-03-13T12:34:57;98231.16;;;-9.92;nan
2401;BME280;1211;43.200;27.914;2023-03-13T12:37:25;97971.91;;;-11.31;nan
2401;BME280;1211;43.200;27.914;2023-03-13T12:39:55;98293.25;;;-9.35;nan
2401;BME280;1211;43.200;27.914;2023-03-13T12:42:31;98351.91;;;-9.25;nan
2401;BME280;1211;43.200;27.914;2023-03-13T12:45:03;98223.06;;;-10.08;nan
2401;BME280;1211;43.200;27.914;2023-03-13T12:47:31;98337.06;;;-9.10;nan
2401;BME280;1211;43.200;27.914;2023-03-13T12:50:01;98119.16;;;-10.48;nan
2401;BME280;1211;43.200;27.914;2023-03-13T12:55:22;98307.97;;;-9.69;nan
2401;BME280;1211;43.200;27.914;2023-03-13T12:58:03;98198.00;;;-10.27;nan
2401;BME280;1211;43.200;27.914;2023-03-13T13:00:35;98279.38;;;-9.84;nan
2401;BME280;1211;43.200;27.914;2023-03-13T13:03:05;98152.38;;;-10.82;nan
2401;BME280;1211;43.200;27.914;2023-03-13T13:05:34;97536.63;;;-15.11;nan
2401;BME280;1211;43.200;27.914;2023-03-13T13:08:01;98123.56;;;-10.12;nan
2401;BME280;1211;43.200;27.914;2023-03-13T13:10:28;98107.66;;;-11.22;nan
2401;BME280;1211;43.200;27.914;2023-03-13T13:15:43;98092.56;;;-10.48;nan
2401;BME280;1211;43.200;27.914;2023-03-13T13:18:12;98114.38;;;-10.41;nan
2401;BME280;1211;43.200;27.914;2023-03-13T13:20:41;98134.72;;;-10.62;nan
2401;BME280;1211;43.200;27.914;2023-03-13T13:26:36;97969.59;;;-11.59;nan
2401;BME280;1211;43.200;27.914;2023-03-13T13:28:47;97848.03;;;-12.36;nan
2401;BME280;1211;43.200;27.914;2023-03-13T13:33:57;97840.97;;;-11.94;nan
2401;BME280;1211;43.200;27.914;2023-03-13T13:36:30;98140.63;;;-10.55;nan
2401;BME280;1211;43.200;27.914;2023-03-13T13:39:20;98086.66;;;-10.55;nan
2401;BME280;1211;43.200;27.914;2023-03-13T13:41:47;98127.22;;;-10.33;nan
2401;BME280;1211;43.200;27.914;2023-03-13T13:44:19;98145.56;;;-10.31;nan
2401;BME280;1211;43.200;27.914;2023-03-13T13:46:47;98158.44;;;-9.51;nan
2401;BME280;1211;43.200;27.914;2023-03-13T13:49:15;98087.53;;;-10.81;nan
2401;BME280;1211;43.200;27.914;2023-03-13T13:52:16;98037.31;;;-11.20;nan
2401;BME280;1211;43.200;27.914;2023-03-13T13:54:53;98050.50;;;-11.35;nan
2401;BME280;1211;43.200;27.914;2023-03-13T13:57:20;98140.44;;;-11.39;nan
2401;BME280;1211;43.200;27.914;2023-03-13T13:59:49;97316.03;;;-16.04;nan
2401;BME280;1211;43.200;27.914;2023-03-13T14:02:23;97981.69;;;-11.69;nan
2401;BME280;1211;43.200;27.914;2023-03-13T14:05:02;97882.38;;;-12.95;nan
2401;BME280;1211;43.200;27.914;2023-03-13T14:07:33;98065.22;;;-11.49;nan
2401;BME280;1211;43.200;27.914;2023-03-13T14:10:06;98073.34;;;-11.88;nan
2401;BME280;1211;43.200;27.914;2023-03-13T14:12:44;97842.25;;;-13.14;nan
2401;BME280;1211;43.200;27.914;2023-03-13T14:15:12;97227.97;;;-16.13;nan
2401;BME280;1211;43.200;27.914;2023-03-13T14:17:39;97809.25;;;-12.74;nan
2401;BME280;1211;43.200;27.914;2023-03-13T14:25:26;98032.75;;;-12.15;nan
2401;BME280;1211;43.200;27.914;2023-03-13T14:27:53;98070.03;;;-11.46;nan
2401;BME280;1211;43.200;27.914;2023-03-13T14:30:21;98070.28;;;-11.16;nan
2401;BME280;1211;43.200;27.914;2023-03-13T14:32:49;98143.94;;;-11.06;nan
2401;BME280;1211;43.200;27.914;2023-03-13T14:35:17;98153.66;;;-11.17;nan
2401;BME280;1211;43.200;27.914;2023-03-13T14:37:45;98175.19;;;-10.55;nan
2401;BME280;1211;43.200;27.914;2023-03-13T14:40:19;98157.16;;;-11.38;nan
2401;BME280;1211;43.200;27.914;2023-03-13T14:42:48;98181.69;;;-11.31;nan
2401;BME280;1211;43.200;27.914;2023-03-13T14:45:18;98261.13;;;-10.49;nan
2401;BME280;1211;43.200;27.914;2023-03-13T14:47:48;98159.16;;;-10.97;nan
2401;BME280;1211;43.200;27.914;2023-03-13T14:50:15;97981.38;;;-11.82;nan
2401;BME280;1211;43.200;27.914;2023-03-13T14:52:43;97972.16;;;-12.01;nan
2401;BME280;1211;43.200;27.914;2023-03-13T14:55:25;97758.38;;;-13.57;nan
2401;BME280;1211;43.200;27.914;2023-03-13T14:57:57;97958.91;;;-10.91;nan
2401;BME280;1211;43.200;27.914;2023-03-13T15:00:29;97982.72;;;-7.14;nan
2401;BME280;1211;43.200;27.914;2023-03-13T15:07:51;98262.75;;;-4.65;nan
2401;BME280;1211;43.200;27.914;2023-03-13T15:10:18;98327.13;;;-2.79;nan
2401;BME280;1211;43.200;27.914;2023-03-13T15:12:45;98464.09;;;0.13;nan
2401;BME280;1211;43.200;27.914;2023-03-13T15:15:14;98286.75;;;-3.20;nan
2401;BME280;1211;43.200;27.914;2023-03-13T15:17:40;98269.94;;;-4.61;nan
2401;BME280;1211;43.200;27.914;2023-03-13T15:20:09;98335.69;;;-4.58;nan
2401;BME280;1211;43.200;27.914;2023-03-13T15:22:37;98283.28;;;-3.99;nan
2401;BME280;1211;43.200;27.914;2023-03-13T15:25:05;98401.38;;;-3.19;nan
2401;BME280;1211;43.200;27.914;2023-03-13T15:27:32;98133.66;;;-6.05;nan
2401;BME280;1211;43.200;27.914;2023-03-13T15:29:59;98182.75;;;-5.19;nan
2401;BME280;1211;43.200;27.914;2023-03-13T15:32:28;98041.50;;;-5.85;nan
2401;BME280;1211;43.200;27.914;2023-03-13T15:34:55;98189.38;;;-6.07;nan
2401;BME280;1211;43.200;27.914;2023-03-13T15:37:24;98241.59;;;-6.43;nan
2401;BME280;1211;43.200;27.914;2023-03-13T15:39:51;98341.50;;;-5.46;nan
2401;BME280;1211;43.200;27.914;2023-03-13T15:42:18;97710.47;;;-9.43;nan
2401;BME280;1211;43.200;27.914;2023-03-13T15:44:45;98395.91;;;-5.79;nan
2401;BME280;1211;43.200;27.914;2023-03-13T15:47:17;98346.03;;;-6.48;nan
2401;BME280;1211;43.200;27.914;2023-03-13T15:49:45;98299.56;;;-6.68;nan
2401;BME280;1211;43.200;27.914;2023-03-13T15:52:13;98291.44;;;-7.07;nan
2401;BME280;1211;43.200;27.914;2023-03-13T15:54:42;98245.66;;;-6.90;nan
2401;BME280;1211;43.200;27.914;2023-03-13T15:57:10;98294.06;;;-8.21;nan
2401;BME280;1211;43.200;27.914;2023-03-13T15:59:37;98318.06;;;-8.26;nan
2401;BME280;1211;43.200;27.914;2023-03-13T16:02:05;98319.16;;;-8.38;nan
2401;BME280;1211;43.200;27.914;2023-03-13T16:04:36;98282.25;;;-10.32;nan
2401;BME280;1211;43.200;27.914;2023-03-13T16:07:08;98215.28;;;-10.88;nan
2401;BME280;1211;43.200;27.914;2023-03-13T16:09:35;97957.19;;;-12.83;nan
2401;BME280;1211;43.200;27.914;2023-03-13T16:12:02;98027.66;;;-12.82;nan
2401;BME280;1211;43.200;27.914;2023-03-13T16:16:55;98086.63;;;-12.70;nan
2401;BME280;1211;43.200;27.914;2023-03-13T16:19:22;98155.72;;;-12.55;nan
2401;BME280;1211;43.200;27.914;2023-03-13T16:21:48;98016.00;;;-13.24;nan
2401;BME280;1211;43.200;27.914;2023-03-13T16:24:18;98154.53;;;-12.47;nan
2401;BME280;1211;43.200;27.914;2023-03-13T16:26:45;97966.75;;;-13.92;nan
2401;BME280;1211;43.200;27.914;2023-03-13T16:29:12;98178.78;;;-12.55;nan
2401;BME280;1211;43.200;27.914;2023-03-13T16:31:39;98088.22;;;-13.07;nan
2401;BME280;1211;43.200;27.914;2023-03-13T16:34:06;97880.63;;;-14.22;nan
2401;BME280;1211;43.200;27.914;2023-03-13T16:36:34;97949.78;;;-13.96;nan
2401;BME280;1211;43.200;27.914;2023-03-13T16:39:02;97950.84;;;-14.26;nan
2401;BME280;1211;43.200;27.914;2023-03-13T16:41:31;98016.53;;;-13.56;nan
2401;BME280;1211;43.200;27.914;2023-03-13T16:46:26;97948.28;;;-14.21;nan
2401;BME280;1211;43.200;27.914;2023-03-13T16:48:52;97793.72;;;-15.01;nan
2401;BME280;1211;43.200;27.914;2023-03-13T16:51:21;97864.78;;;-14.83;nan
2401;BME280;1211;43.200;27.914;2023-03-13T16:53:49;97905.75;;;-14.36;nan
2401;BME280;1211;43.200;27.914;2023-03-13T16:56:20;97887.97;;;-14.85;nan
2401;BME280;1211;43.200;27.914;2023-03-13T16:58:49;97812.50;;;-14.86;nan
2401;BME280;1211;43.200;27.914;2023-03-13T17:01:16;97842.88;;;-14.84;nan
2401;BME280;1211;43.200;27.914;2023-03-13T17:03:42;97840.09;;;-15.06;nan
2401;BME280;1211;43.200;27.914;2023-03-13T17:06:16;96723.44;;;-22.07;nan
2401;BME280;1211;43.200;27.914;2023-03-13T17:08:42;97728.50;;;-15.79;nan
2401;BME280;1211;43.200;27.914;2023-03-13T17:11:13;97833.78;;;-15.33;nan
2401;BME280;1211;43.200;27.914;2023-03-13T17:13:44;97640.19;;;-16.22;nan
2401;BME280;1211;43.200;27.914;2023-03-13T17:16:13;97741.75;;;-15.74;nan
2401;BME280;1211;43.200;27.914;2023-03-13T17:18:41;97702.88;;;-15.39;nan
2401;BME280;1211;43.200;27.914;2023-03-13T17:21:11;97817.03;;;-15.27;nan
2401;BME280;1211;43.200;27.914;2023-03-13T17:23:38;97884.25;;;-15.01;nan
2401;BME280;1211;43.200;27.914;2023-03-13T17:26:09;97856.59;;;-14.98;nan
2401;BME280;1211;43.200;27.914;2023-03-13T17:28:37;96864.81;;;-21.27;nan
2401;BME280;1211;43.200;27.914;2023-03-13T17:31:04;96639.34;;;-22.74;nan
2401;BME280;1211;43.200;27.914;2023-03-13T17:33:32;97724.72;;;-15.83;nan
2401;BME280;1211;43.200;27.914;2023-03-13T17:35:59;97611.84;;;-16.43;nan
2401;BME280;1211;43.200;27.914;2023-03-13T17:38:26;97711.81;;;-15.97;nan
2401;BME280;1211;43.200;27.914;2023-03-13T17:40:52;98098.72;;;-13.46;nan
2401;BME280;1211;43.200;27.914;2023-03-13T17:43:19;98258.53;;;-12.40;nan
2401;BME280;1211;43.200;27.914;2023-03-13T17:45:46;98123.63;;;-13.13;nan
2401;BME280;1211;43.200;27.914;2023-03-13T17:48:12;98146.84;;;-12.99;nan
2401;BME280;1211;43.200;27.914;2023-03-13T17:50:40;97956.94;;;-14.42;nan
2401;BME280;1211;43.200;27.914;2023-03-13T17:53:07;98081.50;;;-13.31;nan
2401;BME280;1211;43.200;27.914;2023-03-13T17:55:34;98046.09;;;-13.59;nan
2401;BME280;1211;43.200;27.914;2023-03-13T17:58:00;98145.09;;;-12.93;nan
2401;BME280;1211;43.200;27.914;2023-03-13T18:00:28;98132.06;;;-13.11;nan
2401;BME280;1211;43.200;27.914;2023-03-13T18:02:55;96998.81;;;-20.32;nan
2401;BME280;1211;43.200;27.914;2023-03-13T18:05:23;98210.50;;;-12.60;nan
2401;BME280;1211;43.200;27.914;2023-03-13T18:07:51;98239.75;;;-12.38;nan
2401;BME280;1211;43.200;27.914;2023-03-13T18:10:20;98193.56;;;-12.76;nan
2401;BME280;1211;43.200;27.914;2023-03-13T18:12:47;98254.91;;;-12.34;nan
2401;BME280;1211;43.200;27.914;2023-03-13T18:15:15;98133.16;;;-12.96;nan
2401;BME280;1211;43.200;27.914;2023-03-13T18:17:42;98243.25;;;-12.16;nan
2401;BME280;1211;43.200;27.914;2023-03-13T18:20:13;98177.81;;;-12.66;nan
2401;BME280;1211;43.200;27.914;2023-03-13T18:22:39;98190.19;;;-12.71;nan
2401;BME280;1211;43.200;27.914;2023-03-13T18:25:08;98139.97;;;-13.16;nan
2401;BME280;1211;43.200;27.914;2023-03-13T18:27:35;98071.50;;;-13.58;nan
2401;BME280;1211;43.200;27.914;2023-03-13T18:30:01;97932.34;;;-14.26;nan
2401;BME280;1211;43.200;27.914;2023-03-13T18:32:28;97947.88;;;-14.29;nan
2401;BME280;1211;43.200;27.914;2023-03-13T18:34:55;98028.66;;;-13.43;nan
2401;BME280;1211;43.200;27.914;2023-03-13T18:37:22;98014.13;;;-13.74;nan
2401;BME280;1211;43.200;27.914;2023-03-13T18:39:50;97800.00;;;-14.91;nan
2401;BME280;1211;43.200;27.914;2023-03-13T18:42:18;97786.31;;;-15.33;nan
2401;BME280;1211;43.200;27.914;2023-03-13T18:44:44;98111.56;;;-13.38;nan
2401;BME280;1211;43.200;27.914;2023-03-13T18:47:12;97831.94;;;-15.61;nan
2401;BME280;1211;43.200;27.914;2023-03-13T18:49:39;97791.66;;;-16.08;nan
2401;BME280;1211;43.200;27.914;2023-03-13T18:52:06;97791.53;;;-15.90;nan
2401;BME280;1211;43.200;27.914;2023-03-13T18:54:33;98089.28;;;-13.98;nan
2401;BME280;1211;43.200;27.914;2023-03-13T18:56:59;98047.34;;;-13.95;nan
2401;BME280;1211;43.200;27.914;2023-03-13T18:59:28;97821.75;;;-15.80;nan
2401;BME280;1211;43.200;27.914;2023-03-13T19:01:54;97723.19;;;-16.19;nan
2401;BME280;1211;43.200;27.914;2023-03-13T19:04:21;97866.25;;;-15.44;nan
2401;BME280;1211;43.200;27.914;2023-03-13T19:06:48;97767.00;;;-15.78;nan
2401;BME280;1211;43.200;27.914;2023-03-13T19:09:15;97828.50;;;-15.33;nan
2401;BME280;1211;43.200;27.914;2023-03-13T19:11:42;97843.97;;;-15.36;nan
2401;BME280;1211;43.200;27.914;2023-03-13T19:14:09;97801.47;;;-15.80;nan
2401;BME280;1211;43.200;27.914;2023-03-13T19:16:39;97721.81;;;-16.45;nan
2401;BME280;1211;43.200;27.914;2023-03-13T19:19:09;97801.38;;;-15.97;nan
2401;BME280;1211;43.200;27.914;2023-03-13T19:21:36;97839.84;;;-15.72;nan
2401;BME280;1211;43.200;27.914;2023-03-13T19:24:03;97912.63;;;-15.20;nan
2401;BME280;1211;43.200;27.914;2023-03-13T19:26:30;97659.63;;;-16.98;nan
2401;BME280;1211;43.200;27.914;2023-03-13T19:31:24;98091.91;;;-14.27;nan
2401;BME280;1211;43.200;27.914;2023-03-13T19:33:52;97829.41;;;-15.56;nan
2401;BME280;1211;43.200;27.914;2023-03-13T19:36:19;97650.59;;;-17.02;nan
2401;BME280;1211;43.200;27.914;2023-03-13T19:38:46;97792.22;;;-16.29;nan
2401;BME280;1211;43.200;27.914;2023-03-13T19:41:13;97514.22;;;-18.45;nan
2401;BME280;1211;43.200;27.914;2023-03-13T19:43:40;97639.03;;;-17.12;nan
2401;BME280;1211;43.200;27.914;2023-03-13T19:48:34;97199.88;;;-19.94;nan
2401;BME280;1211;43.200;27.914;2023-03-13T19:51:02;97382.44;;;-19.11;nan
2401;BME280;1211;43.200;27.914;2023-03-13T19:53:29;97493.72;;;-18.24;nan
2401;BME280;1211;43.200;27.914;2023-03-13T19:55:56;97346.19;;;-19.14;nan
2401;BME280;1211;43.200;27.914;2023-03-13T19:58:22;97279.03;;;-19.50;nan
2401;BME280;1211;43.200;27.914;2023-03-13T20:00:49;97364.66;;;-19.09;nan
2401;BME280;1211;43.200;27.914;2023-03-13T20:03:16;97398.50;;;-19.38;nan
2401;BME280;1211;43.200;27.914;2023-03-13T20:05:42;97539.72;;;-18.63;nan
2401;BME280;1211;43.200;27.914;2023-03-13T20:08:10;97463.78;;;-18.47;nan
2401;BME280;1211;43.200;27.914;2023-03-13T20:10:37;97352.34;;;-19.50;nan
2401;BME280;1211;43.200;27.914;2023-03-13T20:13:04;97384.22;;;-19.53;nan
2401;BME280;1211;43.200;27.914;2023-03-13T20:15:30;97283.97;;;-20.08;nan
2401;BME280;1211;43.200;27.914;2023-03-13T20:17:57;97359.22;;;-19.38;nan
2401;BME280;1211;43.200;27.914;2023-03-13T20:20:24;97374.69;;;-19.66;nan
2401;BME280;1211;43.200;27.914;2023-03-13T20:22:50;97475.47;;;-19.20;nan
2401;BME280;1211;43.200;27.914;2023-03-13T20:25:19;97451.16;;;-19.28;nan
2401;BME280;1211;43.200;27.914;2023-03-13T20:27:47;97437.25;;;-19.58;nan
2401;BME280;1211;43.200;27.914;2023-03-13T20:30:14;97398.69;;;-19.87;nan
2401;BME280;1211;43.200;27.914;2023-03-13T20:32:40;96874.53;;;-23.29;nan
2401;BME280;1211;43.200;27.914;2023-03-13T20:35:07;97429.41;;;-20.01;nan
2401;BME280;1211;43.200;27.914;2023-03-13T20:37:38;97366.97;;;-20.34;nan
2401;BME280;1211;43.200;27.914;2023-03-13T20:40:05;97416.25;;;-20.13;nan
2401;BME280;1211;43.200;27.914;2023-03-13T20:42:33;97330.03;;;-20.44;nan
2401;BME280;1211;43.200;27.914;2023-03-13T20:45:00;95967.78;;;-28.74;nan
2401;BME280;1211;43.200;27.914;2023-03-13T20:47:26;97334.47;;;-20.08;nan
2401;BME280;1211;43.200;27.914;2023-03-13T20:49:53;97332.09;;;-20.28;nan
2401;BME280;1211;43.200;27.914;2023-03-13T20:52:20;97705.78;;;-17.67;nan
2401;BME280;1211;43.200;27.914;2023-03-13T20:54:46;97270.72;;;-20.62;nan
2401;BME280;1211;43.200;27.914;2023-03-13T20:57:13;97250.50;;;-20.55;nan
2401;BME280;1211;43.200;27.914;2023-03-13T20:59:42;97441.41;;;-19.39;nan
2401;BME280;1211;43.200;27.914;2023-03-13T21:02:08;97675.06;;;-17.96;nan
2401;BME280;1211;43.200;27.914;2023-03-13T21:04:35;97199.56;;;-21.07;nan
2401;BME280;1211;43.200;27.914;2023-03-13T21:07:01;97170.69;;;-21.12;nan
2401;BME280;1211;43.200;27.914;2023-03-13T21:09:29;97280.78;;;-20.65;nan
2401;BME280;1211;43.200;27.914;2023-03-13T21:11:57;97289.88;;;-20.92;nan
2401;BME280;1211;43.200;27.914;2023-03-13T21:14:24;97314.19;;;-20.67;nan
2401;BME280;1211;43.200;27.914;2023-03-13T21:16:52;97240.97;;;-20.85;nan
2401;BME280;1211;43.200;27.914;2023-03-13T21:19:19;97219.28;;;-21.54;nan
2401;BME280;1211;43.200;27.914;2023-03-13T21:21:45;97273.28;;;-21.54;nan
2401;BME280;1211;43.200;27.914;2023-03-13T21:24:13;97277.47;;;-21.22;nan
2401;BME280;1211;43.200;27.914;2023-03-13T21:26:40;96922.31;;;-22.43;nan
2401;BME280;1211;43.200;27.914;2023-03-13T21:31:35;97143.50;;;-21.65;nan
2401;BME280;1211;43.200;27.914;2023-03-13T21:34:03;97091.63;;;-22.05;nan
2401;BME280;1211;43.200;27.914;2023-03-13T21:36:30;97121.59;;;-21.89;nan
2401;BME280;1211;43.200;27.914;2023-03-13T21:38:56;97766.22;;;-18.39;nan
2401;BME280;1211;43.200;27.914;2023-03-13T21:41:23;97608.41;;;-18.91;nan
2401;BME280;1211;43.200;27.914;2023-03-13T21:43:50;97074.09;;;-22.85;nan
2401;BME280;1211;43.200;27.914;2023-03-13T21:51:11;96965.50;;;-23.47;nan
2401;BME280;1211;43.200;27.914;2023-03-13T22:00:58;97069.31;;;-22.82;nan
2401;BME280;1211;43.200;27.914;2023-03-13T22:05:52;96985.91;;;-23.44;nan
2401;BME280;1211;43.200;27.914;2023-03-13T22:10:47;96931.69;;;-23.47;nan
2401;BME280;1211;43.200;27.914;2023-03-13T22:13:14;97164.56;;;-22.68;nan
2401;BME280;1211;43.200;27.914;2023-03-13T22:15:41;97142.22;;;-22.82;nan
2401;BME280;1211;43.200;27.914;2023-03-13T22:18:10;97088.00;;;-22.98;nan
2401;BME280;1211;43.200;27.914;2023-03-13T22:23:03;97093.47;;;-23.19;nan
2401;BME280;1211;43.200;27.914;2023-03-13T22:25:31;97023.06;;;-23.37;nan
2401;BME280;1211;43.200;27.914;2023-03-13T22:32:52;97114.56;;;-22.83;nan
2401;BME280;1211;43.200;27.914;2023-03-13T22:35:18;96996.03;;;-23.74;nan
2401;BME280;1211;43.200;27.914;2023-03-13T22:40:12;97110.56;;;-22.85;nan
2401;BME280;1211;43.200;27.914;2023-03-13T22:42:38;97139.72;;;-22.63;nan
2401;BME280;1211;43.200;27.914;2023-03-13T22:45:05;97145.03;;;-22.90;nan
2401;BME280;1211;43.200;27.914;2023-03-13T22:50:00;96992.81;;;-23.83;nan
2401;BME280;1211;43.200;27.914;2023-03-13T22:57:21;97477.94;;;-20.30;nan
2401;BME280;1211;43.200;27.914;2023-03-13T22:59:48;97536.03;;;-19.96;nan
2401;BME280;1211;43.200;27.914;2023-03-13T23:02:15;97505.78;;;-20.35;nan
2401;BME280;1211;43.200;27.914;2023-03-13T23:04:42;96438.97;;;-27.41;nan
2401;BME280;1211;43.200;27.914;2023-03-13T23:07:10;97342.66;;;-21.40;nan
2401;BME280;1211;43.200;27.914;2023-03-13T23:09:37;97356.72;;;-21.10;nan
2401;BME280;1211;43.200;27.914;2023-03-13T23:12:04;97400.72;;;-21.45;nan
2401;BME280;1211;43.200;27.914;2023-03-13T23:14:31;97087.22;;;-22.98;nan
2401;BME280;1211;43.200;27.914;2023-03-13T23:16:57;97144.41;;;-22.85;nan
2401;BME280;1211;43.200;27.914;2023-03-13T23:19:24;97280.69;;;-22.34;nan
2401;BME280;1211;43.200;27.914;2023-03-13T23:21:51;97151.03;;;-22.83;nan
2401;BME280;1211;43.200;27.914;2023-03-13T23:24:19;97252.59;;;-22.25;nan
2401;BME280;1211;43.200;27.914;2023-03-13T23:26:46;97290.19;;;-21.95;nan
2401;BME280;1211;43.200;27.914;2023-03-13T23:29:12;97272.19;;;-22.16;nan
2401;BME280;1211;43.200;27.914;2023-03-13T23:31:40;97285.47;;;-22.17;nan
2401;BME280;1211;43.200;27.914;2023-03-13T23:34:07;97220.53;;;-22.32;nan
2401;BME280;1211;43.200;27.914;2023-03-13T23:36:34;97253.22;;;-22.30;nan
2401;BME280;1211;43.200;27.914;2023-03-13T23:39:00;97300.44;;;-22.00;nan
2401;BME280;1211;43.200;27.914;2023-03-13T23:41:29;97296.88;;;-21.81;nan
2401;BME280;1211;43.200;27.914;2023-03-13T23:43:56;97156.38;;;-22.33;nan
2401;BME280;1211;43.200;27.914;2023-03-13T23:46:25;97224.97;;;-22.39;nan
2401;BME280;1211;43.200;27.914;2023-03-13T23:48:52;97143.66;;;-22.92;nan
2401;BME280;1211;43.200;27.914;2023-03-13T23:51:18;97128.88;;;-22.60;nan
2401;BME280;1211;43.200;27.914;2023-03-13T23:53:45;96946.34;;;-23.60;nan
2401;BME280;1211;43.200;27.914;2023-03-13T23:58:40;96891.78;;;-24.17;nan
